sensor_id;sensor_type;location;lat;lon;timestamp;temperature;humidity
14985;DHT22;7588;62.368;25.902;2022-07-23T00:00:50;17.10;99.90
14985;DHT22;7588;62.368;25.902;2022-07-23T00:03:16;17.10;99.90
14985;DHT22;7588;62.368;25.902;2022-07-23T00:05:42;17.00;99.90
14985;DHT22;7588;62.368;25.902;2022-07-23T00:08:08;17.00;99.90
14985;DHT22;7588;62.368;25.902;2022-07-23T00:10:34;17.10;99.90
14985;DHT22;7588;62.368;25.902;2022-07-23T00:12:59;17.00;99.90
14985;DHT22;7588;62.368;25.902;2022-07-23T00:15:25;17.10;99.90
14985;DHT22;7588;62.368;25.902;2022-07-23T00:17:51;17.10;99.90
14985;DHT22;7588;62.368;25.902;2022-07-23T00:20:17;17.10;99.90
14985;DHT22;7588;62.368;25.902;2022-07-23T00:22:47;17.10;99.90
14985;DHT22;7588;62.368;25.902;2022-07-23T00:25:14;17.10;99.90
14985;DHT22;7588;62.368;25.902;2022-07-23T00:27:39;17.10;99.90
14985;DHT22;7588;62.368;25.902;2022-07-23T00:30:06;17.10;99.90
14985;DHT22;7588;62.368;25.902;2022-07-23T00:32:31;17.20;99.90
14985;DHT22;7588;62.368;25.902;2022-07-23T00:34:57;17.20;99.90
14985;DHT22;7588;62.368;25.902;2022-07-23T00:37:23;17.20;99.90
14985;DHT22;7588;62.368;25.902;2022-07-23T00:39:49;17.20;99.90
14985;DHT22;7588;62.368;25.902;2022-07-23T00:42:14;17.20;99.90
14985;DHT22;7588;62.368;25.902;2022-07-23T00:44:40;17.20;99.90
14985;DHT22;7588;62.368;25.902;2022-07-23T00:47:06;17.20;99.90
14985;DHT22;7588;62.368;25.902;2022-07-23T00:49:32;17.20;99.90
14985;DHT22;7588;62.368;25.902;2022-07-23T00:52:01;17.20;99.90
14985;DHT22;7588;62.368;25.902;2022-07-23T00:54:28;17.20;99.90
14985;DHT22;7588;62.368;25.902;2022-07-23T00:56:54;17.20;99.90
14985;DHT22;7588;62.368;25.902;2022-07-23T00:59:20;17.10;99.90
14985;DHT22;7588;62.368;25.902;2022-07-23T01:01:46;17.10;99.90
14985;DHT22;7588;62.368;25.902;2022-07-23T01:04:14;17.00;99.90
14985;DHT22;7588;62.368;25.902;2022-07-23T01:06:41;17.00;99.90
14985;DHT22;7588;62.368;25.902;2022-07-23T01:09:08;17.00;99.90
14985;DHT22;7588;62.368;25.902;2022-07-23T01:11:35;17.00;99.90
14985;DHT22;7588;62.368;25.902;2022-07-23T01:14:12;17.00;99.90
14985;DHT22;7588;62.368;25.902;2022-07-23T01:16:39;17.20;99.90
14985;DHT22;7588;62.368;25.902;2022-07-23T01:19:05;17.20;99.90
14985;DHT22;7588;62.368;25.902;2022-07-23T01:21:37;17.20;99.90
14985;DHT22;7588;62.368;25.902;2022-07-23T01:24:03;17.30;99.90
14985;DHT22;7588;62.368;25.902;2022-07-23T01:26:29;17.30;99.90
14985;DHT22;7588;62.368;25.902;2022-07-23T01:28:55;17.30;99.90
14985;DHT22;7588;62.368;25.902;2022-07-23T01:31:21;17.40;99.90
14985;DHT22;7588;62.368;25.902;2022-07-23T01:33:49;17.50;99.90
14985;DHT22;7588;62.368;25.902;2022-07-23T01:36:14;17.70;99.90
14985;DHT22;7588;62.368;25.902;2022-07-23T01:38:40;17.70;99.90
14985;DHT22;7588;62.368;25.902;2022-07-23T01:41:06;17.70;99.90
14985;DHT22;7588;62.368;25.902;2022-07-23T01:43:32;17.60;99.90
14985;DHT22;7588;62.368;25.902;2022-07-23T01:45:57;17.60;99.90
14985;DHT22;7588;62.368;25.902;2022-07-23T01:48:23;17.50;99.90
14985;DHT22;7588;62.368;25.902;2022-07-23T01:50:49;17.50;99.90
14985;DHT22;7588;62.368;25.902;2022-07-23T01:53:15;17.40;99.90
14985;DHT22;7588;62.368;25.902;2022-07-23T01:55:41;17.40;99.90
14985;DHT22;7588;62.368;25.902;2022-07-23T01:58:07;17.40;99.90
14985;DHT22;7588;62.368;25.902;2022-07-23T02:00:33;17.40;99.90
14985;DHT22;7588;62.368;25.902;2022-07-23T02:02:59;17.50;99.90
14985;DHT22;7588;62.368;25.902;2022-07-23T02:05:25;17.50;99.90
14985;DHT22;7588;62.368;25.902;2022-07-23T02:07:51;17.50;99.90
14985;DHT22;7588;62.368;25.902;2022-07-23T02:10:19;17.40;99.90
14985;DHT22;7588;62.368;25.902;2022-07-23T02:12:44;17.40;99.90
14985;DHT22;7588;62.368;25.902;2022-07-23T02:15:10;17.40;99.90
14985;DHT22;7588;62.368;25.902;2022-07-23T02:17:36;17.30;99.90
14985;DHT22;7588;62.368;25.902;2022-07-23T02:20:02;17.40;99.90
14985;DHT22;7588;62.368;25.902;2022-07-23T02:22:28;17.40;99.90
14985;DHT22;7588;62.368;25.902;2022-07-23T02:24:54;17.40;99.90
14985;DHT22;7588;62.368;25.902;2022-07-23T02:27:20;17.40;99.90
14985;DHT22;7588;62.368;25.902;2022-07-23T02:29:46;17.30;99.90
14985;DHT22;7588;62.368;25.902;2022-07-23T02:32:12;17.40;99.90
14985;DHT22;7588;62.368;25.902;2022-07-23T02:34:38;17.40;99.90
14985;DHT22;7588;62.368;25.902;2022-07-23T02:37:03;17.40;99.90
14985;DHT22;7588;62.368;25.902;2022-07-23T02:39:29;17.50;99.90
14985;DHT22;7588;62.368;25.902;2022-07-23T02:41:55;17.60;99.90
14985;DHT22;7588;62.368;25.902;2022-07-23T02:44:21;17.60;99.90
14985;DHT22;7588;62.368;25.902;2022-07-23T02:46:47;17.70;99.90
14985;DHT22;7588;62.368;25.902;2022-07-23T02:49:12;17.80;99.90
14985;DHT22;7588;62.368;25.902;2022-07-23T02:51:38;17.80;99.90
14985;DHT22;7588;62.368;25.902;2022-07-23T02:54:04;17.80;99.90
14985;DHT22;7588;62.368;25.902;2022-07-23T02:56:29;17.80;99.90
14985;DHT22;7588;62.368;25.902;2022-07-23T02:58:55;17.70;99.90
14985;DHT22;7588;62.368;25.902;2022-07-23T03:01:21;17.70;99.90
14985;DHT22;7588;62.368;25.902;2022-07-23T03:03:47;17.70;99.90
14985;DHT22;7588;62.368;25.902;2022-07-23T03:06:12;17.70;99.90
14985;DHT22;7588;62.368;25.902;2022-07-23T03:08:39;17.70;99.90
14985;DHT22;7588;62.368;25.902;2022-07-23T03:11:04;17.60;99.90
14985;DHT22;7588;62.368;25.902;2022-07-23T03:13:39;17.60;99.90
14985;DHT22;7588;62.368;25.902;2022-07-23T03:16:06;17.50;99.90
14985;DHT22;7588;62.368;25.902;2022-07-23T03:18:33;17.50;99.90
14985;DHT22;7588;62.368;25.902;2022-07-23T03:20:59;17.50;99.90
14985;DHT22;7588;62.368;25.902;2022-07-23T03:23:25;17.50;99.90
14985;DHT22;7588;62.368;25.902;2022-07-23T03:25:50;17.40;99.90
14985;DHT22;7588;62.368;25.902;2022-07-23T03:28:17;17.40;99.90
14985;DHT22;7588;62.368;25.902;2022-07-23T03:30:44;17.40;99.90
14985;DHT22;7588;62.368;25.902;2022-07-23T03:33:15;17.40;99.90
14985;DHT22;7588;62.368;25.902;2022-07-23T03:35:45;17.40;99.90
14985;DHT22;7588;62.368;25.902;2022-07-23T03:38:11;17.50;99.90
14985;DHT22;7588;62.368;25.902;2022-07-23T03:40:37;17.40;99.90
14985;DHT22;7588;62.368;25.902;2022-07-23T03:43:03;17.40;99.90
14985;DHT22;7588;62.368;25.902;2022-07-23T03:45:29;17.40;99.90
14985;DHT22;7588;62.368;25.902;2022-07-23T03:47:55;17.50;99.90
14985;DHT22;7588;62.368;25.902;2022-07-23T03:50:20;17.50;99.90
14985;DHT22;7588;62.368;25.902;2022-07-23T03:52:46;17.50;99.90
14985;DHT22;7588;62.368;25.902;2022-07-23T03:55:12;17.50;99.90
14985;DHT22;7588;62.368;25.902;2022-07-23T03:57:38;17.50;99.90
14985;DHT22;7588;62.368;25.902;2022-07-23T04:00:05;17.50;99.90
14985;DHT22;7588;62.368;25.902;2022-07-23T04:02:32;17.60;99.90
14985;DHT22;7588;62.368;25.902;2022-07-23T04:04:58;17.60;99.90
14985;DHT22;7588;62.368;25.902;2022-07-23T04:07:25;17.60;99.90
14985;DHT22;7588;62.368;25.902;2022-07-23T04:09:50;17.60;99.90
14985;DHT22;7588;62.368;25.902;2022-07-23T04:12:16;17.70;99.90
14985;DHT22;7588;62.368;25.902;2022-07-23T04:14:42;17.80;99.90
14985;DHT22;7588;62.368;25.902;2022-07-23T04:17:08;17.80;99.90
14985;DHT22;7588;62.368;25.902;2022-07-23T04:19:33;17.80;99.90
14985;DHT22;7588;62.368;25.902;2022-07-23T04:22:01;17.90;99.90
14985;DHT22;7588;62.368;25.902;2022-07-23T04:24:26;17.90;99.90
14985;DHT22;7588;62.368;25.902;2022-07-23T04:26:52;17.90;99.90
14985;DHT22;7588;62.368;25.902;2022-07-23T04:29:18;17.90;99.90
14985;DHT22;7588;62.368;25.902;2022-07-23T04:31:44;17.90;99.90
14985;DHT22;7588;62.368;25.902;2022-07-23T04:34:10;17.90;99.90
14985;DHT22;7588;62.368;25.902;2022-07-23T04:36:35;18.00;99.90
14985;DHT22;7588;62.368;25.902;2022-07-23T04:39:01;18.00;99.90
14985;DHT22;7588;62.368;25.902;2022-07-23T04:41:27;18.10;99.90
14985;DHT22;7588;62.368;25.902;2022-07-23T04:43:52;18.20;99.90
14985;DHT22;7588;62.368;25.902;2022-07-23T04:46:18;18.60;99.90
14985;DHT22;7588;62.368;25.902;2022-07-23T04:48:44;19.00;99.90
14985;DHT22;7588;62.368;25.902;2022-07-23T04:51:09;19.00;99.90
14985;DHT22;7588;62.368;25.902;2022-07-23T04:53:37;19.00;99.90
14985;DHT22;7588;62.368;25.902;2022-07-23T04:56:04;18.90;99.90
14985;DHT22;7588;62.368;25.902;2022-07-23T04:58:30;18.80;99.90
14985;DHT22;7588;62.368;25.902;2022-07-23T05:00:57;18.80;99.90
14985;DHT22;7588;62.368;25.902;2022-07-23T05:03:23;18.70;99.90
14985;DHT22;7588;62.368;25.902;2022-07-23T05:05:49;18.70;99.90
14985;DHT22;7588;62.368;25.902;2022-07-23T05:08:15;18.70;99.90
14985;DHT22;7588;62.368;25.902;2022-07-23T05:10:40;18.70;99.90
14985;DHT22;7588;62.368;25.902;2022-07-23T05:13:06;18.60;99.90
14985;DHT22;7588;62.368;25.902;2022-07-23T05:15:32;18.60;99.90
14985;DHT22;7588;62.368;25.902;2022-07-23T05:17:58;18.60;99.90
14985;DHT22;7588;62.368;25.902;2022-07-23T05:20:24;18.60;99.90
14985;DHT22;7588;62.368;25.902;2022-07-23T05:22:49;18.60;99.90
14985;DHT22;7588;62.368;25.902;2022-07-23T05:25:15;18.60;99.90
14985;DHT22;7588;62.368;25.902;2022-07-23T05:27:41;18.70;99.90
14985;DHT22;7588;62.368;25.902;2022-07-23T05:30:07;18.80;99.90
14985;DHT22;7588;62.368;25.902;2022-07-23T05:32:33;18.80;99.90
14985;DHT22;7588;62.368;25.902;2022-07-23T05:34:59;18.90;99.90
14985;DHT22;7588;62.368;25.902;2022-07-23T05:37:24;18.90;99.90
14985;DHT22;7588;62.368;25.902;2022-07-23T05:39:51;18.90;99.90
14985;DHT22;7588;62.368;25.902;2022-07-23T05:42:17;19.00;99.90
14985;DHT22;7588;62.368;25.902;2022-07-23T05:44:42;19.00;99.90
14985;DHT22;7588;62.368;25.902;2022-07-23T05:47:08;19.00;99.90
14985;DHT22;7588;62.368;25.902;2022-07-23T05:49:35;19.00;99.90
14985;DHT22;7588;62.368;25.902;2022-07-23T05:52:06;18.90;99.90
14985;DHT22;7588;62.368;25.902;2022-07-23T05:54:34;18.80;99.90
14985;DHT22;7588;62.368;25.902;2022-07-23T05:57:00;18.90;99.90
14985;DHT22;7588;62.368;25.902;2022-07-23T05:59:26;18.80;99.90
14985;DHT22;7588;62.368;25.902;2022-07-23T06:01:52;18.70;99.90
14985;DHT22;7588;62.368;25.902;2022-07-23T06:04:18;18.70;99.90
14985;DHT22;7588;62.368;25.902;2022-07-23T06:06:43;18.60;99.90
14985;DHT22;7588;62.368;25.902;2022-07-23T06:09:09;18.60;99.90
14985;DHT22;7588;62.368;25.902;2022-07-23T06:11:36;18.60;99.90
14985;DHT22;7588;62.368;25.902;2022-07-23T06:14:02;18.60;99.90
14985;DHT22;7588;62.368;25.902;2022-07-23T06:16:28;18.60;99.90
14985;DHT22;7588;62.368;25.902;2022-07-23T06:18:54;18.70;99.90
14985;DHT22;7588;62.368;25.902;2022-07-23T06:21:19;18.70;99.90
14985;DHT22;7588;62.368;25.902;2022-07-23T06:23:45;18.70;99.90
14985;DHT22;7588;62.368;25.902;2022-07-23T06:26:11;18.70;99.90
14985;DHT22;7588;62.368;25.902;2022-07-23T06:28:36;18.70;99.90
14985;DHT22;7588;62.368;25.902;2022-07-23T06:31:02;18.80;99.90
14985;DHT22;7588;62.368;25.902;2022-07-23T06:33:28;18.80;99.90
14985;DHT22;7588;62.368;25.902;2022-07-23T06:35:54;18.80;99.90
14985;DHT22;7588;62.368;25.902;2022-07-23T06:38:19;18.80;99.90
14985;DHT22;7588;62.368;25.902;2022-07-23T06:40:45;18.90;99.90
14985;DHT22;7588;62.368;25.902;2022-07-23T06:43:11;18.90;99.90
14985;DHT22;7588;62.368;25.902;2022-07-23T06:45:37;19.00;99.90
14985;DHT22;7588;62.368;25.902;2022-07-23T06:48:02;19.00;99.90
14985;DHT22;7588;62.368;25.902;2022-07-23T06:50:29;19.00;99.90
14985;DHT22;7588;62.368;25.902;2022-07-23T06:52:54;19.00;99.90
14985;DHT22;7588;62.368;25.902;2022-07-23T06:55:20;18.90;99.90
14985;DHT22;7588;62.368;25.902;2022-07-23T06:57:46;18.90;99.90
14985;DHT22;7588;62.368;25.902;2022-07-23T07:00:12;18.90;99.90
14985;DHT22;7588;62.368;25.902;2022-07-23T07:02:38;18.80;99.90
14985;DHT22;7588;62.368;25.902;2022-07-23T07:05:04;18.70;99.90
14985;DHT22;7588;62.368;25.902;2022-07-23T07:07:29;18.70;99.90
14985;DHT22;7588;62.368;25.902;2022-07-23T07:09:55;18.60;99.90
14985;DHT22;7588;62.368;25.902;2022-07-23T07:12:21;18.60;99.90
14985;DHT22;7588;62.368;25.902;2022-07-23T07:14:47;18.60;99.90
14985;DHT22;7588;62.368;25.902;2022-07-23T07:17:12;18.50;99.90
14985;DHT22;7588;62.368;25.902;2022-07-23T07:19:38;18.50;99.90
14985;DHT22;7588;62.368;25.902;2022-07-23T07:22:04;18.40;99.90
14985;DHT22;7588;62.368;25.902;2022-07-23T07:24:29;18.40;99.90
14985;DHT22;7588;62.368;25.902;2022-07-23T07:26:55;18.40;99.90
14985;DHT22;7588;62.368;25.902;2022-07-23T07:29:21;18.40;99.90
14985;DHT22;7588;62.368;25.902;2022-07-23T07:31:47;18.40;99.90
14985;DHT22;7588;62.368;25.902;2022-07-23T07:34:12;18.40;99.90
14985;DHT22;7588;62.368;25.902;2022-07-23T07:36:38;18.40;99.90
14985;DHT22;7588;62.368;25.902;2022-07-23T07:39:04;18.40;99.90
14985;DHT22;7588;62.368;25.902;2022-07-23T07:41:31;18.40;99.90
14985;DHT22;7588;62.368;25.902;2022-07-23T07:43:56;18.40;99.90
14985;DHT22;7588;62.368;25.902;2022-07-23T07:46:22;18.50;99.90
14985;DHT22;7588;62.368;25.902;2022-07-23T07:48:50;18.60;99.90
14985;DHT22;7588;62.368;25.902;2022-07-23T07:51:16;18.50;99.90
14985;DHT22;7588;62.368;25.902;2022-07-23T07:53:41;18.50;99.90
14985;DHT22;7588;62.368;25.902;2022-07-23T07:56:07;18.60;99.90
14985;DHT22;7588;62.368;25.902;2022-07-23T07:58:33;18.60;99.90
14985;DHT22;7588;62.368;25.902;2022-07-23T08:00:59;18.60;99.90
14985;DHT22;7588;62.368;25.902;2022-07-23T08:03:26;18.60;99.90
14985;DHT22;7588;62.368;25.902;2022-07-23T08:05:52;18.70;99.90
14985;DHT22;7588;62.368;25.902;2022-07-23T08:08:18;18.70;99.90
14985;DHT22;7588;62.368;25.902;2022-07-23T08:10:44;18.70;99.90
14985;DHT22;7588;62.368;25.902;2022-07-23T08:13:13;18.80;99.90
14985;DHT22;7588;62.368;25.902;2022-07-23T08:15:40;18.80;99.90
14985;DHT22;7588;62.368;25.902;2022-07-23T08:18:05;18.90;99.90
14985;DHT22;7588;62.368;25.902;2022-07-23T08:20:31;19.00;99.90
14985;DHT22;7588;62.368;25.902;2022-07-23T08:23:00;19.10;99.90
14985;DHT22;7588;62.368;25.902;2022-07-23T08:25:28;19.30;99.90
14985;DHT22;7588;62.368;25.902;2022-07-23T08:27:54;19.50;99.90
14985;DHT22;7588;62.368;25.902;2022-07-23T08:30:21;19.80;99.90
14985;DHT22;7588;62.368;25.902;2022-07-23T08:35:26;20.00;99.90
14985;DHT22;7588;62.368;25.902;2022-07-23T08:37:52;20.10;99.90
14985;DHT22;7588;62.368;25.902;2022-07-23T08:40:19;20.00;99.90
14985;DHT22;7588;62.368;25.902;2022-07-23T08:42:47;20.00;99.90
14985;DHT22;7588;62.368;25.902;2022-07-23T08:45:17;20.00;99.90
14985;DHT22;7588;62.368;25.902;2022-07-23T08:47:43;20.00;99.90
14985;DHT22;7588;62.368;25.902;2022-07-23T08:50:10;19.90;99.90
14985;DHT22;7588;62.368;25.902;2022-07-23T08:52:37;19.90;99.90
14985;DHT22;7588;62.368;25.902;2022-07-23T08:55:03;19.90;99.90
14985;DHT22;7588;62.368;25.902;2022-07-23T08:57:29;20.00;99.90
14985;DHT22;7588;62.368;25.902;2022-07-23T08:59:56;20.00;99.90
14985;DHT22;7588;62.368;25.902;2022-07-23T09:02:22;19.90;99.90
14985;DHT22;7588;62.368;25.902;2022-07-23T09:04:48;19.90;99.90
14985;DHT22;7588;62.368;25.902;2022-07-23T09:07:13;20.00;99.90
14985;DHT22;7588;62.368;25.902;2022-07-23T09:09:39;20.10;99.90
14985;DHT22;7588;62.368;25.902;2022-07-23T09:12:07;20.10;99.90
14985;DHT22;7588;62.368;25.902;2022-07-23T09:15:06;20.10;99.90
14985;DHT22;7588;62.368;25.902;2022-07-23T09:17:40;20.10;99.90
14985;DHT22;7588;62.368;25.902;2022-07-23T09:20:15;20.20;99.90
14985;DHT22;7588;62.368;25.902;2022-07-23T09:22:45;20.30;99.90
14985;DHT22;7588;62.368;25.902;2022-07-23T09:25:16;20.50;99.90
14985;DHT22;7588;62.368;25.902;2022-07-23T09:30:31;20.70;99.90
14985;DHT22;7588;62.368;25.902;2022-07-23T09:33:13;20.80;99.90
14985;DHT22;7588;62.368;25.902;2022-07-23T09:38:17;20.80;99.90
14985;DHT22;7588;62.368;25.902;2022-07-23T09:40:44;20.80;99.90
14985;DHT22;7588;62.368;25.902;2022-07-23T09:43:09;20.70;99.90
14985;DHT22;7588;62.368;25.902;2022-07-23T09:45:35;20.60;99.90
14985;DHT22;7588;62.368;25.902;2022-07-23T09:48:14;20.50;99.90
14985;DHT22;7588;62.368;25.902;2022-07-23T09:50:44;20.40;99.90
14985;DHT22;7588;62.368;25.902;2022-07-23T09:53:24;20.30;99.90
14985;DHT22;7588;62.368;25.902;2022-07-23T09:55:51;20.30;99.90
14985;DHT22;7588;62.368;25.902;2022-07-23T09:58:21;20.20;99.90
14985;DHT22;7588;62.368;25.902;2022-07-23T10:00:48;20.20;99.90
14985;DHT22;7588;62.368;25.902;2022-07-23T10:03:15;20.10;99.90
14985;DHT22;7588;62.368;25.902;2022-07-23T10:05:43;20.10;99.90
14985;DHT22;7588;62.368;25.902;2022-07-23T10:08:12;20.10;99.90
14985;DHT22;7588;62.368;25.902;2022-07-23T10:10:39;20.00;99.90
14985;DHT22;7588;62.368;25.902;2022-07-23T10:13:05;20.00;99.90
14985;DHT22;7588;62.368;25.902;2022-07-23T10:15:50;20.00;99.90
14985;DHT22;7588;62.368;25.902;2022-07-23T10:18:16;19.90;99.90
14985;DHT22;7588;62.368;25.902;2022-07-23T10:20:42;19.80;99.90
14985;DHT22;7588;62.368;25.902;2022-07-23T10:23:28;19.80;99.90
14985;DHT22;7588;62.368;25.902;2022-07-23T10:26:03;19.70;99.90
14985;DHT22;7588;62.368;25.902;2022-07-23T10:34:24;19.90;99.90
14985;DHT22;7588;62.368;25.902;2022-07-23T10:36:56;20.00;99.90
14985;DHT22;7588;62.368;25.902;2022-07-23T10:39:26;20.10;99.90
14985;DHT22;7588;62.368;25.902;2022-07-23T10:42:13;20.10;99.90
14985;DHT22;7588;62.368;25.902;2022-07-23T10:47:06;20.30;99.90
14985;DHT22;7588;62.368;25.902;2022-07-23T10:49:47;20.30;99.90
14985;DHT22;7588;62.368;25.902;2022-07-23T10:54:44;20.20;99.90
14985;DHT22;7588;62.368;25.902;2022-07-23T10:57:12;20.20;99.90
14985;DHT22;7588;62.368;25.902;2022-07-23T11:02:29;19.90;99.90
14985;DHT22;7588;62.368;25.902;2022-07-23T11:05:00;19.90;99.90
14985;DHT22;7588;62.368;25.902;2022-07-23T11:07:26;19.90;99.90
14985;DHT22;7588;62.368;25.902;2022-07-23T11:09:52;19.80;99.90
14985;DHT22;7588;62.368;25.902;2022-07-23T11:15:02;19.80;99.90
14985;DHT22;7588;62.368;25.902;2022-07-23T11:17:30;19.90;99.90
14985;DHT22;7588;62.368;25.902;2022-07-23T11:27:55;22.10;99.90
14985;DHT22;7588;62.368;25.902;2022-07-23T11:35:34;23.30;99.90
14985;DHT22;7588;62.368;25.902;2022-07-23T11:38:14;23.30;99.90
14985;DHT22;7588;62.368;25.902;2022-07-23T11:40:41;23.20;99.90
14985;DHT22;7588;62.368;25.902;2022-07-23T11:43:09;22.90;99.90
14985;DHT22;7588;62.368;25.902;2022-07-23T11:45:39;22.50;99.90
14985;DHT22;7588;62.368;25.902;2022-07-23T11:48:08;22.30;99.90
14985;DHT22;7588;62.368;25.902;2022-07-23T11:50:35;22.10;99.90
14985;DHT22;7588;62.368;25.902;2022-07-23T11:53:02;21.70;99.90
14985;DHT22;7588;62.368;25.902;2022-07-23T11:55:28;21.60;99.90
14985;DHT22;7588;62.368;25.902;2022-07-23T11:57:54;21.50;99.90
14985;DHT22;7588;62.368;25.902;2022-07-23T12:00:29;21.40;99.90
14985;DHT22;7588;62.368;25.902;2022-07-23T12:03:00;21.30;99.90
14985;DHT22;7588;62.368;25.902;2022-07-23T12:05:32;21.40;99.90
14985;DHT22;7588;62.368;25.902;2022-07-23T12:07:59;21.60;99.90
14985;DHT22;7588;62.368;25.902;2022-07-23T12:10:29;21.60;99.90
14985;DHT22;7588;62.368;25.902;2022-07-23T12:13:01;21.50;99.90
14985;DHT22;7588;62.368;25.902;2022-07-23T12:15:35;21.40;99.90
14985;DHT22;7588;62.368;25.902;2022-07-23T12:18:04;21.20;99.90
14985;DHT22;7588;62.368;25.902;2022-07-23T12:20:36;21.00;99.90
14985;DHT22;7588;62.368;25.902;2022-07-23T12:23:04;20.80;99.90
14985;DHT22;7588;62.368;25.902;2022-07-23T12:25:52;20.60;99.90
14985;DHT22;7588;62.368;25.902;2022-07-23T12:28:27;20.50;99.90
14985;DHT22;7588;62.368;25.902;2022-07-23T12:30:54;20.10;99.90
14985;DHT22;7588;62.368;25.902;2022-07-23T12:33:26;19.90;99.90
14985;DHT22;7588;62.368;25.902;2022-07-23T12:35:54;19.80;99.90
14985;DHT22;7588;62.368;25.902;2022-07-23T12:38:22;19.70;99.90
14985;DHT22;7588;62.368;25.902;2022-07-23T12:40:58;19.60;99.90
14985;DHT22;7588;62.368;25.902;2022-07-23T12:43:29;19.70;99.90
14985;DHT22;7588;62.368;25.902;2022-07-23T12:48:24;19.80;99.90
14985;DHT22;7588;62.368;25.902;2022-07-23T12:50:59;19.80;99.90
14985;DHT22;7588;62.368;25.902;2022-07-23T12:53:31;19.70;99.90
14985;DHT22;7588;62.368;25.902;2022-07-23T12:56:07;19.60;99.90
14985;DHT22;7588;62.368;25.902;2022-07-23T12:58:48;19.40;99.90
14985;DHT22;7588;62.368;25.902;2022-07-23T13:04:12;19.00;99.90
14985;DHT22;7588;62.368;25.902;2022-07-23T13:06:44;19.00;99.90
14985;DHT22;7588;62.368;25.902;2022-07-23T13:09:13;19.10;99.90
14985;DHT22;7588;62.368;25.902;2022-07-23T13:11:39;19.20;99.90
14985;DHT22;7588;62.368;25.902;2022-07-23T13:14:06;19.20;99.90
14985;DHT22;7588;62.368;25.902;2022-07-23T13:16:32;19.30;99.90
14985;DHT22;7588;62.368;25.902;2022-07-23T13:18:59;19.20;99.90
14985;DHT22;7588;62.368;25.902;2022-07-23T13:21:26;19.10;99.90
14985;DHT22;7588;62.368;25.902;2022-07-23T13:23:52;19.00;99.90
14985;DHT22;7588;62.368;25.902;2022-07-23T13:26:18;18.80;99.90
14985;DHT22;7588;62.368;25.902;2022-07-23T13:28:44;18.70;99.90
14985;DHT22;7588;62.368;25.902;2022-07-23T13:31:10;18.60;99.90
14985;DHT22;7588;62.368;25.902;2022-07-23T13:33:35;18.60;99.90
14985;DHT22;7588;62.368;25.902;2022-07-23T13:36:02;18.40;99.90
14985;DHT22;7588;62.368;25.902;2022-07-23T13:38:29;18.20;99.90
14985;DHT22;7588;62.368;25.902;2022-07-23T13:40:55;18.00;99.90
14985;DHT22;7588;62.368;25.902;2022-07-23T13:43:23;17.90;99.90
14985;DHT22;7588;62.368;25.902;2022-07-23T13:45:51;17.80;99.90
14985;DHT22;7588;62.368;25.902;2022-07-23T13:48:18;17.70;99.90
14985;DHT22;7588;62.368;25.902;2022-07-23T13:50:44;17.60;99.90
14985;DHT22;7588;62.368;25.902;2022-07-23T13:53:13;17.50;99.90
14985;DHT22;7588;62.368;25.902;2022-07-23T13:55:39;17.40;99.90
14985;DHT22;7588;62.368;25.902;2022-07-23T13:58:06;17.30;99.90
14985;DHT22;7588;62.368;25.902;2022-07-23T14:00:34;17.20;99.90
14985;DHT22;7588;62.368;25.902;2022-07-23T14:03:00;17.20;99.90
14985;DHT22;7588;62.368;25.902;2022-07-23T14:05:26;17.20;99.90
14985;DHT22;7588;62.368;25.902;2022-07-23T14:07:53;17.10;99.90
14985;DHT22;7588;62.368;25.902;2022-07-23T14:10:20;17.10;99.90
14985;DHT22;7588;62.368;25.902;2022-07-23T14:12:47;17.00;99.90
14985;DHT22;7588;62.368;25.902;2022-07-23T14:15:14;17.10;99.90
14985;DHT22;7588;62.368;25.902;2022-07-23T14:17:42;17.20;99.90
14985;DHT22;7588;62.368;25.902;2022-07-23T14:20:09;17.20;99.90
14985;DHT22;7588;62.368;25.902;2022-07-23T14:22:35;17.30;99.90
14985;DHT22;7588;62.368;25.902;2022-07-23T14:25:01;17.40;99.90
14985;DHT22;7588;62.368;25.902;2022-07-23T14:27:27;17.40;99.90
14985;DHT22;7588;62.368;25.902;2022-07-23T14:29:54;17.50;99.90
14985;DHT22;7588;62.368;25.902;2022-07-23T14:32:20;17.60;99.90
14985;DHT22;7588;62.368;25.902;2022-07-23T14:34:46;17.70;99.90
14985;DHT22;7588;62.368;25.902;2022-07-23T14:37:12;17.70;99.90
14985;DHT22;7588;62.368;25.902;2022-07-23T14:39:42;17.80;99.90
14985;DHT22;7588;62.368;25.902;2022-07-23T14:42:08;17.90;99.90
14985;DHT22;7588;62.368;25.902;2022-07-23T14:44:35;17.80;99.90
14985;DHT22;7588;62.368;25.902;2022-07-23T14:47:02;17.70;99.90
14985;DHT22;7588;62.368;25.902;2022-07-23T14:49:30;17.60;99.90
14985;DHT22;7588;62.368;25.902;2022-07-23T14:51:55;17.50;99.90
14985;DHT22;7588;62.368;25.902;2022-07-23T14:54:21;17.40;99.90
14985;DHT22;7588;62.368;25.902;2022-07-23T14:56:47;17.40;99.90
14985;DHT22;7588;62.368;25.902;2022-07-23T14:59:13;17.40;99.90
14985;DHT22;7588;62.368;25.902;2022-07-23T15:01:39;17.40;99.90
14985;DHT22;7588;62.368;25.902;2022-07-23T15:04:05;17.30;99.90
14985;DHT22;7588;62.368;25.902;2022-07-23T15:06:32;17.30;99.90
14985;DHT22;7588;62.368;25.902;2022-07-23T15:08:58;17.20;99.90
14985;DHT22;7588;62.368;25.902;2022-07-23T15:11:26;17.10;99.90
14985;DHT22;7588;62.368;25.902;2022-07-23T15:13:52;17.00;99.90
14985;DHT22;7588;62.368;25.902;2022-07-23T15:16:17;17.10;99.90
14985;DHT22;7588;62.368;25.902;2022-07-23T15:18:43;17.00;99.90
14985;DHT22;7588;62.368;25.902;2022-07-23T15:21:09;16.90;99.90
14985;DHT22;7588;62.368;25.902;2022-07-23T15:23:35;16.90;99.90
14985;DHT22;7588;62.368;25.902;2022-07-23T15:26:01;16.80;99.90
14985;DHT22;7588;62.368;25.902;2022-07-23T15:28:27;16.80;99.90
14985;DHT22;7588;62.368;25.902;2022-07-23T15:30:53;16.80;99.90
14985;DHT22;7588;62.368;25.902;2022-07-23T15:33:19;16.80;99.90
14985;DHT22;7588;62.368;25.902;2022-07-23T15:35:45;16.80;99.90
14985;DHT22;7588;62.368;25.902;2022-07-23T15:38:11;16.80;99.90
14985;DHT22;7588;62.368;25.902;2022-07-23T15:40:36;16.80;99.90
14985;DHT22;7588;62.368;25.902;2022-07-23T15:43:02;16.90;99.90
14985;DHT22;7588;62.368;25.902;2022-07-23T15:45:30;16.80;99.90
14985;DHT22;7588;62.368;25.902;2022-07-23T15:47:56;16.80;99.90
14985;DHT22;7588;62.368;25.902;2022-07-23T15:50:22;16.80;99.90
14985;DHT22;7588;62.368;25.902;2022-07-23T15:52:48;16.80;99.90
14985;DHT22;7588;62.368;25.902;2022-07-23T15:55:14;16.70;99.90
14985;DHT22;7588;62.368;25.902;2022-07-23T15:57:40;16.70;99.90
14985;DHT22;7588;62.368;25.902;2022-07-23T16:00:07;16.70;99.90
14985;DHT22;7588;62.368;25.902;2022-07-23T16:02:34;16.70;99.90
14985;DHT22;7588;62.368;25.902;2022-07-23T16:05:00;16.70;99.90
14985;DHT22;7588;62.368;25.902;2022-07-23T16:07:26;16.70;99.90
14985;DHT22;7588;62.368;25.902;2022-07-23T16:09:52;16.80;99.90
14985;DHT22;7588;62.368;25.902;2022-07-23T16:12:18;16.80;99.90